Time;durP1;ratioP1;P1;durP2;ratioP2;P2;SDS_P1;SDS_P2;PMS_P1;PMS_P2;Temp;Humidity;BMP_temperature;BMP_pressure;BME280_temperature;BME280_humidity;BME280_pressure;Samples;Min_cycle;Max_cycle;Signal;HPM_P1;HPM_P2
2022/07/12 00:02:17;;;;;;;4.20;3.40;;;16.10;99.90;;;;;;5052990;28;20037;-62
2022/07/12 00:04:43;;;;;;;3.22;2.67;;;16.10;99.90;;;;;;5054511;28;20748;-63
2022/07/12 00:07:08;;;;;;;4.30;3.03;;;16.00;99.90;;;;;;5065243;28;20510;-63
2022/07/12 00:09:34;;;;;;;3.00;2.40;;;16.00;99.90;;;;;;5052740;28;20032;-63
2022/07/12 00:12:00;;;;;;;3.05;2.63;;;15.90;99.90;;;;;;5050295;28;20492;-63
2022/07/12 00:14:25;;;;;;;4.45;2.70;;;15.70;99.90;;;;;;5055173;28;20052;-63
2022/07/12 00:16:51;;;;;;;2.92;2.50;;;15.60;99.90;;;;;;5052054;28;20029;-63
2022/07/12 00:19:17;;;;;;;3.55;2.00;;;15.50;99.90;;;;;;5045617;28;20124;-63
2022/07/12 00:21:43;;;;;;;3.28;2.55;;;15.50;99.90;;;;;;5061780;28;20032;-62
2022/07/12 00:24:09;;;;;;;3.13;2.22;;;15.40;99.90;;;;;;5059445;28;20036;-63
2022/07/12 00:26:35;;;;;;;4.15;2.40;;;15.30;99.90;;;;;;5049378;28;20390;-63
2022/07/12 00:29:00;;;;;;;4.18;2.05;;;15.20;99.90;;;;;;5059578;28;20040;-63
2022/07/12 00:31:26;;;;;;;4.25;2.45;;;15.10;99.90;;;;;;5053699;28;20541;-62
2022/07/12 00:33:52;;;;;;;4.28;2.40;;;15.10;99.90;;;;;;5057536;28;20540;-62
2022/07/12 00:36:17;;;;;;;3.88;2.60;;;15.00;99.90;;;;;;5048403;28;20543;-62
2022/07/12 00:38:43;;;;;;;4.18;2.38;;;14.90;99.90;;;;;;5058178;28;20055;-62
2022/07/12 00:41:08;;;;;;;3.30;2.17;;;14.80;99.90;;;;;;5062282;28;20464;-62
2022/07/12 00:43:34;;;;;;;2.85;2.42;;;14.70;99.90;;;;;;5065249;28;20043;-62
2022/07/12 00:45:59;;;;;;;5.25;2.72;;;14.70;99.90;;;;;;5059385;28;20131;-62
2022/07/12 00:48:25;;;;;;;3.83;2.78;;;14.60;99.90;;;;;;5055482;28;20056;-62
2022/07/12 00:50:51;;;;;;;3.95;2.65;;;14.60;99.90;;;;;;5051950;28;20036;-62
2022/07/12 00:53:19;;;;;;;4.45;2.70;;;14.50;99.90;;;;;;5057336;28;20472;-62
2022/07/12 00:55:44;;;;;;;3.95;2.72;;;14.40;99.90;;;;;;5057918;28;20372;-63
2022/07/12 00:58:10;;;;;;;3.33;2.60;;;14.40;99.90;;;;;;5068266;28;20049;-62
2022/07/12 01:00:36;;;;;;;3.45;2.45;;;14.40;99.90;;;;;;5060733;28;20027;-63
2022/07/12 01:03:03;;;;;;;3.45;2.72;;;14.40;99.90;;;;;;5058992;28;20072;-62
2022/07/12 01:05:29;;;;;;;4.45;2.50;;;14.40;99.90;;;;;;5051216;28;20118;-62
2022/07/12 01:07:56;;;;;;;2.72;2.20;;;14.30;99.90;;;;;;5065485;28;20044;-62
2022/07/12 01:10:21;;;;;;;2.35;1.75;;;14.20;99.90;;;;;;5050655;28;20480;-62
2022/07/12 01:12:48;;;;;;;2.97;2.15;;;14.10;99.90;;;;;;5053886;28;20047;-62
2022/07/12 01:15:14;;;;;;;3.28;2.30;;;14.00;99.90;;;;;;5062644;28;20040;-63
2022/07/12 01:17:39;;;;;;;2.42;1.80;;;14.00;99.90;;;;;;5059696;28;20376;-62
2022/07/12 01:20:06;;;;;;;3.42;2.40;;;14.00;99.90;;;;;;5052106;28;20094;-62
2022/07/12 01:22:36;;;;;;;3.28;2.10;;;13.90;99.90;;;;;;5052056;28;20033;-62
2022/07/12 01:25:04;;;;;;;2.53;1.98;;;13.90;99.90;;;;;;5058984;28;20037;-62
2022/07/12 01:27:30;;;;;;;4.53;2.25;;;13.80;99.90;;;;;;5057254;28;20638;-63
2022/07/12 01:29:56;;;;;;;3.00;2.00;;;13.80;99.90;;;;;;5056796;28;20048;-63
2022/07/12 01:32:25;;;;;;;2.58;1.90;;;13.80;99.90;;;;;;5054443;28;20082;-62
2022/07/12 01:34:54;;;;;;;2.60;2.08;;;13.80;99.90;;;;;;5054883;28;20464;-62
2022/07/12 01:37:22;;;;;;;2.10;1.60;;;13.70;99.90;;;;;;5052327;28;20052;-62
2022/07/12 01:39:53;;;;;;;3.33;2.20;;;13.60;99.90;;;;;;5051483;28;20098;-63
2022/07/12 01:42:19;;;;;;;3.22;1.75;;;13.50;99.90;;;;;;5056845;28;20521;-62
2022/07/12 01:44:45;;;;;;;3.58;2.28;;;13.40;99.90;;;;;;5052604;28;20051;-62
2022/07/12 01:47:12;;;;;;;3.20;2.47;;;13.40;99.90;;;;;;5055635;28;20371;-63
2022/07/12 01:49:37;;;;;;;4.05;2.40;;;13.30;99.90;;;;;;5058240;28;20457;-62
2022/07/12 01:52:04;;;;;;;2.95;2.28;;;13.30;99.90;;;;;;5051782;28;20044;-62
2022/07/12 01:54:30;;;;;;;2.88;2.08;;;13.20;99.90;;;;;;5052788;28;20075;-62
2022/07/12 01:56:55;;;;;;;2.65;2.28;;;13.30;99.90;;;;;;5052786;28;21031;-63
2022/07/12 01:59:22;;;;;;;5.07;2.42;;;13.20;99.90;;;;;;5057858;28;20794;-62
2022/07/12 02:01:48;;;;;;;2.65;1.92;;;13.10;99.90;;;;;;5052221;28;20035;-63
2022/07/12 02:04:18;;;;;;;3.70;2.47;;;13.10;99.90;;;;;;5063941;28;20047;-62
2022/07/12 02:06:47;;;;;;;2.80;2.20;;;13.10;99.90;;;;;;5052956;28;20119;-62
2022/07/12 02:09:13;;;;;;;3.53;2.50;;;13.10;99.90;;;;;;5056444;28;20296;-62
2022/07/12 02:11:40;;;;;;;3.60;2.33;;;13.10;99.90;;;;;;5053131;28;20043;-62
2022/07/12 02:14:05;;;;;;;9.10;2.70;;;13.10;99.90;;;;;;5052903;28;20037;-62
2022/07/12 02:16:31;;;;;;;4.30;2.65;;;13.00;99.90;;;;;;5055715;28;20539;-62
2022/07/12 02:18:57;;;;;;;3.60;2.60;;;13.00;99.90;;;;;;5057405;28;20077;-62
2022/07/12 02:21:23;;;;;;;4.20;2.55;;;12.90;99.90;;;;;;5055424;28;20040;-62
2022/07/12 02:23:48;;;;;;;3.58;2.38;;;12.80;99.90;;;;;;5052061;28;20034;-62
2022/07/12 02:26:15;;;;;;;3.97;2.72;;;12.80;99.90;;;;;;5052472;28;20045;-63
2022/07/12 02:28:41;;;;;;;3.40;2.40;;;12.70;99.90;;;;;;5057771;28;20051;-63
2022/07/12 02:31:06;;;;;;;3.15;2.30;;;12.70;99.90;;;;;;5053600;28;20463;-63
2022/07/12 02:33:32;;;;;;;2.70;2.30;;;12.70;99.90;;;;;;5052364;28;20037;-62
2022/07/12 02:35:57;;;;;;;2.75;2.13;;;12.60;99.90;;;;;;5050546;28;20041;-62
2022/07/12 02:38:23;;;;;;;2.75;1.85;;;12.60;99.90;;;;;;5055756;28;20037;-62
2022/07/12 02:40:55;;;;;;;3.47;2.33;;;12.50;99.90;;;;;;5059178;28;20032;-63
2022/07/12 02:43:21;;;;;;;2.85;2.00;;;12.50;99.90;;;;;;5054810;28;20033;-62
2022/07/12 02:45:47;;;;;;;2.42;1.77;;;12.40;99.90;;;;;;5051716;28;20068;-63
2022/07/12 02:48:13;;;;;;;1.98;1.50;;;12.50;99.90;;;;;;5051001;28;20064;-62
2022/07/12 02:50:40;;;;;;;4.18;2.13;;;12.50;99.90;;;;;;5057094;28;20033;-62
2022/07/12 02:53:07;;;;;;;2.00;1.75;;;12.40;99.90;;;;;;5065216;28;20040;-63
2022/07/12 02:55:33;;;;;;;2.40;1.95;;;12.40;99.90;;;;;;5060151;28;20049;-62
2022/07/12 02:57:58;;;;;;;3.53;1.98;;;12.30;99.90;;;;;;5057232;28;20110;-62
2022/07/12 03:00:24;;;;;;;3.10;1.95;;;12.30;99.90;;;;;;5051163;28;20111;-62
2022/07/12 03:02:50;;;;;;;2.80;1.70;;;12.30;99.90;;;;;;5050987;28;20036;-62
2022/07/12 03:05:15;;;;;;;2.47;1.95;;;12.20;99.90;;;;;;5049243;28;20047;-62
2022/07/12 03:07:41;;;;;;;2.70;1.85;;;12.20;99.90;;;;;;5052333;28;20041;-62
2022/07/12 03:10:08;;;;;;;2.63;2.10;;;12.20;99.90;;;;;;5062818;28;20051;-62
2022/07/12 03:12:34;;;;;;;2.95;2.05;;;12.20;99.90;;;;;;5061784;28;20040;-63
2022/07/12 03:15:00;;;;;;;2.33;1.88;;;12.20;99.90;;;;;;5060646;28;20170;-62
2022/07/12 03:17:26;;;;;;;3.90;1.95;;;12.20;99.90;;;;;;5058432;28;20037;-62
2022/07/12 03:19:51;;;;;;;2.20;1.42;;;12.10;99.90;;;;;;5054042;28;20052;-62
2022/07/12 03:22:17;;;;;;;2.75;1.83;;;12.10;99.90;;;;;;5065498;28;20036;-62
2022/07/12 03:24:43;;;;;;;4.22;2.25;;;12.00;99.90;;;;;;5050591;28;20380;-62
2022/07/12 03:27:09;;;;;;;2.33;2.00;;;12.00;99.90;;;;;;5049549;28;20032;-62
2022/07/12 03:29:35;;;;;;;3.00;2.00;;;12.00;99.90;;;;;;5058330;28;20036;-62
2022/07/12 03:32:01;;;;;;;3.00;1.90;;;11.90;99.90;;;;;;5066918;28;20083;-62
2022/07/12 03:34:26;;;;;;;3.28;1.70;;;11.90;99.90;;;;;;5058085;28;20098;-63
2022/07/12 03:36:53;;;;;;;3.85;2.03;;;11.90;99.90;;;;;;5054617;28;20047;-63
2022/07/12 03:39:18;;;;;;;4.68;1.85;;;11.80;99.90;;;;;;5047547;28;20041;-63
2022/07/12 03:41:44;;;;;;;2.83;1.80;;;11.90;99.90;;;;;;5056775;28;20468;-63
2022/07/12 03:44:09;;;;;;;2.40;1.52;;;11.80;99.90;;;;;;5053932;28;20388;-63
2022/07/12 03:46:35;;;;;;;3.70;2.00;;;11.80;99.90;;;;;;5059661;28;20036;-62
2022/07/12 03:49:01;;;;;;;3.17;2.00;;;11.80;99.90;;;;;;5048439;28;20538;-62
2022/07/12 03:51:26;;;;;;;2.45;1.80;;;11.90;99.90;;;;;;5050581;28;20051;-62
2022/07/12 03:53:52;;;;;;;3.00;1.95;;;11.90;99.90;;;;;;5053293;28;20399;-62
2022/07/12 03:59:02;;;;;;;2.33;1.60;;;11.90;99.90;;;;;;5052293;28;20052;-62
2022/07/12 04:01:28;;;;;;;2.10;1.60;;;11.90;99.90;;;;;;5047814;28;20047;-62
2022/07/12 04:03:55;;;;;;;2.72;1.90;;;11.80;99.90;;;;;;5054119;28;20507;-63
2022/07/12 04:06:21;;;;;;;2.83;1.80;;;11.80;99.90;;;;;;5058778;28;20037;-63
2022/07/12 04:08:46;;;;;;;3.50;1.92;;;11.80;99.90;;;;;;5050964;28;20047;-62
2022/07/12 04:11:12;;;;;;;4.10;2.00;;;11.80;99.90;;;;;;5051580;28;20053;-62
2022/07/12 04:13:38;;;;;;;3.28;2.42;;;11.80;99.90;;;;;;5060392;28;20036;-63
2022/07/12 04:16:04;;;;;;;4.25;2.50;;;11.80;99.90;;;;;;5052469;28;20033;-62
2022/07/12 04:18:29;;;;;;;4.15;2.67;;;11.90;99.90;;;;;;5057796;28;20052;-62
2022/07/12 04:20:55;;;;;;;3.55;2.47;;;11.90;99.90;;;;;;5058728;28;20043;-63
2022/07/12 04:23:20;;;;;;;3.70;2.30;;;11.90;99.90;;;;;;5054634;28;20481;-62
2022/07/12 04:25:46;;;;;;;5.35;2.50;;;11.90;99.90;;;;;;5049651;28;20110;-62
2022/07/12 04:28:11;;;;;;;2.35;1.83;;;11.90;99.90;;;;;;5061311;28;20083;-62
2022/07/12 04:30:37;;;;;;;3.25;2.08;;;12.00;99.90;;;;;;5059591;28;20065;-63
2022/07/12 04:33:02;;;;;;;3.03;2.03;;;12.00;99.90;;;;;;5066701;28;20049;-62
2022/07/12 04:35:28;;;;;;;3.17;2.00;;;12.10;99.90;;;;;;5054260;28;20048;-62
2022/07/12 04:37:54;;;;;;;2.17;1.70;;;12.10;99.90;;;;;;5055789;28;20032;-62
2022/07/12 04:40:20;;;;;;;3.22;2.40;;;12.20;99.90;;;;;;5047845;28;20067;-63
2022/07/12 04:42:45;;;;;;;2.45;1.73;;;12.30;99.90;;;;;;5051531;28;20041;-63
2022/07/12 04:45:11;;;;;;;5.15;2.08;;;12.30;99.90;;;;;;5057854;28;20037;-62
2022/07/12 04:47:37;;;;;;;6.50;1.95;;;12.30;99.90;;;;;;5048917;28;20045;-63
2022/07/12 04:50:07;;;;;;;5.25;2.33;;;12.30;99.90;;;;;;5050807;28;20518;-62
2022/07/12 04:52:34;;;;;;;3.55;2.22;;;12.30;99.90;;;;;;5048848;28;20095;-63
2022/07/12 04:55:00;;;;;;;3.85;2.13;;;12.40;99.90;;;;;;5049050;28;20404;-63
2022/07/12 04:57:26;;;;;;;2.72;1.80;;;12.40;99.90;;;;;;5059382;28;20099;-63
2022/07/12 04:59:52;;;;;;;3.78;1.88;;;12.50;99.90;;;;;;5047934;28;20524;-63
2022/07/12 05:02:17;;;;;;;2.70;1.88;;;12.50;99.90;;;;;;5057092;28;20040;-63
2022/07/12 05:04:44;;;;;;;3.78;1.90;;;12.60;99.90;;;;;;5049850;28;20115;-63
2022/07/12 05:07:09;;;;;;;2.58;1.65;;;12.70;99.90;;;;;;5047208;28;20052;-63
2022/07/12 05:09:35;;;;;;;2.08;1.52;;;12.90;99.90;;;;;;5048433;28;20083;-63
2022/07/12 05:12:00;;;;;;;3.72;1.52;;;13.00;99.90;;;;;;5052795;28;20052;-63
2022/07/12 05:14:26;;;;;;;2.10;1.70;;;13.20;99.90;;;;;;5057866;28;20132;-63
2022/07/12 05:16:51;;;;;;;4.57;1.67;;;13.40;99.90;;;;;;5049833;28;20076;-63
2022/07/12 05:19:17;;;;;;;2.53;1.70;;;13.60;99.90;;;;;;5055729;28;20472;-63
2022/07/12 05:21:43;;;;;;;2.03;1.80;;;13.80;99.90;;;;;;5048647;28;20029;-63
2022/07/12 05:24:08;;;;;;;2.95;1.50;;;14.10;99.90;;;;;;5048431;28;20037;-63
2022/07/12 05:26:34;;;;;;;1.63;1.23;;;14.10;99.90;;;;;;5060586;28;20041;-63
2022/07/12 05:29:00;;;;;;;2.60;1.40;;;14.10;99.90;;;;;;5063930;28;20468;-63
2022/07/12 05:31:26;;;;;;;2.67;1.30;;;14.00;99.90;;;;;;5051115;28;20041;-63
2022/07/12 05:33:52;;;;;;;2.40;1.50;;;14.00;99.90;;;;;;5051444;28;20051;-63
2022/07/12 05:36:18;;;;;;;1.90;1.42;;;13.90;99.90;;;;;;5050099;28;20033;-63
2022/07/12 05:38:44;;;;;;;2.40;1.55;;;13.90;99.90;;;;;;5052724;28;20106;-63
2022/07/12 05:41:09;;;;;;;3.15;1.98;;;13.90;99.90;;;;;;5053382;28;20064;-62
2022/07/12 05:43:35;;;;;;;2.78;1.60;;;13.90;99.90;;;;;;5062241;28;20753;-62
2022/07/12 05:46:01;;;;;;;2.65;2.15;;;14.10;99.90;;;;;;5051650;28;21102;-63
2022/07/12 05:48:26;;;;;;;3.92;2.70;;;14.30;99.90;;;;;;5061094;28;20044;-63
2022/07/12 05:50:52;;;;;;;6.20;4.43;;;14.50;99.90;;;;;;5057582;28;20040;-62
2022/07/12 05:53:24;;;;;;;7.82;5.40;;;14.70;99.90;;;;;;5064158;28;20145;-63
2022/07/12 05:55:50;;;;;;;8.90;6.10;;;15.10;99.90;;;;;;5054684;28;20087;-62
2022/07/12 05:58:17;;;;;;;7.15;5.57;;;15.50;99.90;;;;;;5058809;28;20044;-63
2022/07/12 06:00:43;;;;;;;7.88;5.97;;;15.80;99.90;;;;;;5053609;28;20041;-63
2022/07/12 06:03:08;;;;;;;8.00;6.07;;;15.90;99.90;;;;;;5047218;28;20028;-63
2022/07/12 06:05:34;;;;;;;9.02;6.35;;;16.00;99.90;;;;;;5054978;28;20037;-63
2022/07/12 06:08:00;;;;;;;9.52;6.32;;;16.20;99.90;;;;;;5053473;28;20526;-62
2022/07/12 06:10:25;;;;;;;8.13;5.90;;;16.20;99.90;;;;;;5059588;28;20040;-63
2022/07/12 06:12:51;;;;;;;8.38;6.05;;;16.30;99.90;;;;;;5059952;28;20544;-63
2022/07/12 06:15:17;;;;;;;8.15;6.57;;;16.40;99.90;;;;;;5056519;28;20045;-63
2022/07/12 06:17:43;;;;;;;8.63;6.65;;;16.50;99.90;;;;;;5058697;28;20040;-63
2022/07/12 06:20:09;;;;;;;8.68;5.78;;;16.60;99.90;;;;;;5052042;28;20040;-63
2022/07/12 06:22:34;;;;;;;7.15;5.40;;;16.70;99.90;;;;;;5052133;28;20087;-63
2022/07/12 06:25:00;;;;;;;6.72;5.53;;;16.80;99.90;;;;;;5054173;28;20040;-62
2022/07/12 06:27:26;;;;;;;7.90;5.53;;;16.80;99.90;;;;;;5052515;28;20495;-63
2022/07/12 06:29:52;;;;;;;9.00;5.80;;;16.90;99.90;;;;;;5057322;28;20395;-62
2022/07/12 06:32:18;;;;;;;9.60;5.72;;;17.00;99.90;;;;;;5055107;28;20048;-63
2022/07/12 06:34:44;;;;;;;8.27;5.35;;;17.10;99.90;;;;;;5050618;28;20036;-63
2022/07/12 06:37:10;;;;;;;7.97;5.40;;;17.20;99.90;;;;;;5051813;28;20133;-63
2022/07/12 06:39:36;;;;;;;7.45;5.38;;;17.40;99.90;;;;;;5056661;28;20045;-63
2022/07/12 06:42:05;;;;;;;10.30;6.57;;;17.40;99.90;;;;;;5053578;28;20087;-63
2022/07/12 06:44:32;;;;;;;7.45;5.68;;;17.50;99.90;;;;;;5053363;28;20093;-63
2022/07/12 06:46:58;;;;;;;7.20;5.22;;;17.60;99.90;;;;;;5073055;28;20040;-63
2022/07/12 06:49:25;;;;;;;6.65;5.20;;;17.60;99.90;;;;;;5065516;28;20090;-63
2022/07/12 06:51:51;;;;;;;8.18;6.15;;;17.70;99.90;;;;;;5056562;28;20117;-63
2022/07/12 06:54:16;;;;;;;8.50;6.28;;;17.80;99.90;;;;;;5058690;28;20041;-63
2022/07/12 06:56:42;;;;;;;8.70;6.63;;;17.80;99.90;;;;;;5053338;28;20044;-63
2022/07/12 06:59:11;;;;;;;7.68;5.85;;;18.00;99.90;;;;;;5060845;28;20090;-62
2022/07/12 07:01:37;;;;;;;8.57;6.03;;;18.10;99.90;;;;;;5054878;28;20036;-63
2022/07/12 07:04:03;;;;;;;7.53;5.70;;;18.10;99.90;;;;;;5058743;28;20072;-63
2022/07/12 07:06:29;;;;;;;6.70;5.40;;;18.30;99.90;;;;;;5049686;28;20486;-63
2022/07/12 07:08:54;;;;;;;8.13;5.25;;;18.40;99.90;;;;;;5051059;28;20040;-63
2022/07/12 07:11:20;;;;;;;6.70;5.57;;;18.60;99.90;;;;;;5054084;28;20036;-63
2022/07/12 07:13:48;;;;;;;6.30;5.43;;;18.80;99.90;;;;;;5056691;28;20037;-63
2022/07/12 07:16:13;;;;;;;6.28;4.82;;;19.00;99.90;;;;;;5035373;28;20507;-62
2022/07/12 07:18:40;;;;;;;6.25;4.85;;;19.30;99.90;;;;;;5054633;28;20048;-63
2022/07/12 07:21:06;;;;;;;6.93;5.80;;;19.60;99.90;;;;;;5054442;28;20599;-63
2022/07/12 07:23:32;;;;;;;6.00;4.82;;;19.70;99.90;;;;;;5066230;28;20055;-63
2022/07/12 07:25:58;;;;;;;6.10;4.93;;;19.80;99.90;;;;;;5052009;28;20029;-64
2022/07/12 07:28:23;;;;;;;6.10;4.78;;;20.10;99.90;;;;;;5055791;28;20045;-64
2022/07/12 07:30:52;;;;;;;6.40;4.32;;;20.20;99.90;;;;;;5073028;28;20054;-64
2022/07/12 07:33:24;;;;;;;4.90;4.00;;;20.30;99.90;;;;;;5072838;28;20028;-63
2022/07/12 07:35:51;;;;;;;5.68;4.55;;;20.50;99.90;;;;;;5067588;28;20467;-63
2022/07/12 07:38:17;;;;;;;5.40;4.35;;;20.30;99.80;;;;;;5070406;28;20040;-63
2022/07/12 07:40:43;;;;;;;6.90;3.90;;;20.20;99.90;;;;;;5071397;28;20075;-63
2022/07/12 07:43:09;;;;;;;7.40;3.83;;;20.20;99.90;;;;;;5062566;28;20083;-63
2022/07/12 07:45:34;;;;;;;4.75;3.75;;;20.40;99.90;;;;;;5050779;28;20025;-63
2022/07/12 07:48:00;;;;;;;5.00;3.80;;;20.70;99.90;;;;;;5059890;28;20056;-64
2022/07/12 07:50:27;;;;;;;5.40;3.95;;;20.90;99.90;;;;;;5049667;28;20056;-63
2022/07/12 07:52:52;;;;;;;6.30;4.30;;;21.50;98.80;;;;;;5054120;28;20088;-63
2022/07/12 07:55:18;;;;;;;5.68;3.95;;;21.40;98.10;;;;;;5058657;28;20060;-64
2022/07/12 07:57:44;;;;;;;5.45;4.22;;;21.90;98.10;;;;;;5061261;28;20037;-64
2022/07/12 08:00:10;;;;;;;6.15;4.28;;;22.00;97.30;;;;;;5050210;28;20037;-64
2022/07/12 08:02:36;;;;;;;6.43;4.80;;;22.40;96.20;;;;;;5060415;28;20029;-63
2022/07/12 08:05:02;;;;;;;5.63;4.07;;;22.50;93.40;;;;;;5048367;28;20043;-63
2022/07/12 08:07:28;;;;;;;4.60;4.07;;;22.10;94.00;;;;;;5052837;28;20067;-64
2022/07/12 08:09:53;;;;;;;5.72;4.35;;;22.10;94.20;;;;;;5054316;28;20032;-64
2022/07/12 08:12:19;;;;;;;4.90;3.97;;;22.60;94.00;;;;;;5065392;28;20037;-63
2022/07/12 08:14:44;;;;;;;4.93;3.92;;;23.10;93.50;;;;;;5053129;28;20040;-64
2022/07/12 08:17:10;;;;;;;4.05;3.58;;;23.50;92.20;;;;;;5049672;28;20429;-64
2022/07/12 08:19:35;;;;;;;4.38;3.97;;;23.40;91.50;;;;;;5048980;28;20447;-64
2022/07/12 08:22:01;;;;;;;4.15;3.25;;;23.90;90.70;;;;;;5049883;28;20036;-64
2022/07/12 08:24:27;;;;;;;4.38;3.97;;;23.70;90.40;;;;;;5047526;28;20031;-64
2022/07/12 08:26:52;;;;;;;4.15;3.75;;;24.00;90.30;;;;;;5051104;28;20036;-63
2022/07/12 08:29:18;;;;;;;3.20;2.90;;;23.90;84.60;;;;;;5053844;28;20044;-65
2022/07/12 08:31:44;;;;;;;3.65;3.35;;;24.10;87.50;;;;;;5049195;28;20099;-64
2022/07/12 08:34:10;;;;;;;2.88;2.60;;;24.70;85.40;;;;;;5048940;28;20043;-65
2022/07/12 08:36:35;;;;;;;3.78;3.30;;;25.20;84.00;;;;;;5068347;28;20492;-64
2022/07/12 08:39:01;;;;;;;3.17;2.88;;;25.70;81.90;;;;;;5060340;28;20056;-65
2022/07/12 08:41:27;;;;;;;3.10;2.90;;;26.00;80.60;;;;;;5048677;28;20036;-65
2022/07/12 08:43:52;;;;;;;2.88;2.47;;;26.40;78.60;;;;;;5051632;28;20047;-65
2022/07/12 08:46:18;;;;;;;3.53;3.22;;;26.00;78.00;;;;;;5064623;28;20047;-65
2022/07/12 08:48:43;;;;;;;3.45;2.95;;;26.20;76.70;;;;;;5066460;28;20495;-66
2022/07/12 08:51:14;;;;;;;3.55;2.90;;;26.20;76.40;;;;;;5047485;28;20083;-65
2022/07/12 08:53:40;;;;;;;3.40;3.10;;;26.60;74.10;;;;;;5056093;28;20083;-65
2022/07/12 08:56:07;;;;;;;2.95;2.50;;;26.80;74.10;;;;;;5064423;28;20102;-65
2022/07/12 08:58:33;;;;;;;2.60;2.40;;;26.70;73.70;;;;;;5068210;28;20059;-65
2022/07/12 09:01:00;;;;;;;3.70;3.40;;;26.90;73.40;;;;;;5070135;28;20421;-64
2022/07/12 09:03:25;;;;;;;2.38;2.00;;;26.20;72.20;;;;;;5073596;28;20044;-64
2022/07/12 09:05:56;;;;;;;2.65;2.20;;;26.50;72.50;;;;;;5071134;28;20075;-65
2022/07/12 09:08:30;;;;;;;3.92;2.10;;;26.50;71.80;;;;;;5068833;28;20040;-65
2022/07/12 09:11:01;;;;;;;2.40;2.03;;;26.80;71.90;;;;;;5065545;28;20063;-65
2022/07/12 09:13:51;;;;;;;2.92;2.72;;;26.80;71.60;;;;;;5053395;28;20055;-63
2022/07/12 09:16:19;;;;;;;3.15;2.85;;;26.60;69.40;;;;;;5052480;28;20029;-64
2022/07/12 09:18:45;;;;;;;3.58;3.28;;;26.60;71.30;;;;;;5051349;28;20041;-64
2022/07/12 09:21:23;;;;;;;3.60;3.30;;;26.70;69.70;;;;;;5052308;28;20071;-65
2022/07/12 09:23:52;;;;;;;3.22;2.92;;;26.80;69.00;;;;;;5057160;28;20032;-63
2022/07/12 09:26:17;;;;;;;3.47;3.17;;;26.40;67.80;;;;;;5063296;28;20036;-63
2022/07/12 09:28:43;;;;;;;3.58;3.20;;;26.60;69.20;;;;;;5069192;28;20521;-65
2022/07/12 09:31:09;;;;;;;2.65;2.45;;;26.70;68.40;;;;;;5053134;28;20060;-63
2022/07/12 09:36:24;;;;;;;2.60;2.40;;;26.80;67.70;;;;;;5051593;28;20048;-64
2022/07/12 09:39:01;;;;;;;3.28;2.75;;;27.50;66.40;;;;;;5051854;28;20090;-65
2022/07/12 09:41:27;;;;;;;3.60;2.40;;;28.00;65.30;;;;;;5051905;28;20101;-64
2022/07/12 09:43:53;;;;;;;2.50;2.30;;;28.60;64.30;;;;;;5068182;28;20432;-64
2022/07/12 09:46:19;;;;;;;3.08;2.42;;;28.30;61.30;;;;;;5050324;28;20388;-63
2022/07/12 09:48:46;;;;;;;2.60;2.40;;;28.00;61.20;;;;;;5053006;28;20040;-65
2022/07/12 09:51:17;;;;;;;2.80;2.58;;;28.40;61.70;;;;;;5066796;28;20558;-64
2022/07/12 09:53:51;;;;;;;2.10;1.90;;;28.20;61.70;;;;;;5052599;28;20040;-64
2022/07/12 09:56:21;;;;;;;3.55;2.83;;;28.20;62.30;;;;;;5052273;28;20132;-64
2022/07/12 09:58:54;;;;;;;3.45;2.90;;;28.20;61.90;;;;;;5058959;28;20040;-65
2022/07/12 10:01:21;;;;;;;3.70;2.50;;;27.90;61.40;;;;;;5073014;28;20369;-65
2022/07/12 10:03:48;;;;;;;2.50;2.30;;;28.90;60.60;;;;;;5067924;28;20033;-65
2022/07/12 10:06:29;;;;;;;4.25;2.75;;;29.80;59.00;;;;;;5065874;28;20166;-64
2022/07/12 10:08:56;;;;;;;2.70;2.10;;;29.70;57.80;;;;;;5049239;28;20032;-66
2022/07/12 10:11:23;;;;;;;2.20;1.88;;;30.40;58.50;;;;;;5051506;28;20094;-65
2022/07/12 10:13:49;;;;;;;2.53;2.33;;;30.60;56.20;;;;;;5054005;28;20149;-65
2022/07/12 10:16:24;;;;;;;2.47;1.98;;;30.90;54.70;;;;;;5052669;28;20059;-65
2022/07/12 10:19:24;;;;;;;2.60;2.40;;;30.60;54.40;;;;;;5050918;28;20045;-66
2022/07/12 10:21:52;;;;;;;2.55;2.35;;;30.20;55.50;;;;;;5050533;28;20037;-65
2022/07/12 10:24:33;;;;;;;3.88;1.95;;;30.20;54.60;;;;;;5055181;28;20058;-64
2022/07/12 10:27:20;;;;;;;8.35;2.00;;;31.50;52.40;;;;;;5056911;28;20477;-66
2022/07/12 10:29:52;;;;;;;1.67;1.58;;;31.60;52.60;;;;;;5051885;28;20041;-65
2022/07/12 10:32:35;;;;;;;1.85;1.50;;;32.30;51.20;;;;;;5055116;28;20119;-66
2022/07/12 10:35:11;;;;;;;1.73;1.60;;;32.40;50.20;;;;;;5067244;28;20102;-66
2022/07/12 10:37:37;;;;;;;1.73;1.42;;;32.90;49.30;;;;;;5066836;28;20492;-65
2022/07/12 10:40:15;;;;;;;1.50;1.20;;;32.00;47.90;;;;;;5049633;28;20493;-65
2022/07/12 10:43:04;;;;;;;2.05;1.30;;;31.50;49.50;;;;;;5055529;28;20238;-65
2022/07/12 10:45:36;;;;;;;2.45;1.20;;;30.40;49.70;;;;;;5047056;28;20051;-64
2022/07/12 10:48:06;;;;;;;2.42;1.20;;;29.40;53.20;;;;;;5058860;28;20044;-65
2022/07/12 10:50:41;;;;;;;2.97;1.30;;;29.00;54.70;;;;;;5054404;28;20041;-63
2022/07/12 10:53:19;;;;;;;2.05;1.50;;;29.20;56.10;;;;;;5058323;28;20044;-66
2022/07/12 10:56:06;;;;;;;1.50;1.40;;;29.10;54.50;;;;;;5054481;28;20053;-65
2022/07/12 10:58:34;;;;;;;4.75;1.52;;;29.10;55.20;;;;;;5046251;28;20484;-65
2022/07/12 11:01:07;;;;;;;1.75;1.15;;;29.20;54.20;;;;;;5070702;28;20504;-65
2022/07/12 11:03:44;;;;;;;1.88;1.40;;;29.20;54.10;;;;;;5065059;28;20115;-65
2022/07/12 11:06:13;;;;;;;1.40;1.17;;;29.70;54.30;;;;;;5064613;28;20041;-65
2022/07/12 11:08:59;;;;;;;1.38;1.27;;;29.90;53.50;;;;;;5047471;28;20071;-65
2022/07/12 11:11:43;;;;;;;1.42;0.95;;;29.90;52.80;;;;;;5060028;28;20654;-63
2022/07/12 11:14:09;;;;;;;3.30;1.10;;;29.30;53.50;;;;;;5059860;28;20040;-65
2022/07/12 11:16:42;;;;;;;2.15;1.20;;;29.00;55.80;;;;;;5069399;28;20468;-64
2022/07/12 11:19:08;;;;;;;1.45;1.10;;;28.60;57.60;;;;;;5068433;28;20046;-65
2022/07/12 11:21:35;;;;;;;6.40;1.80;;;28.30;56.30;;;;;;5066738;28;20041;-65
2022/07/12 11:24:01;;;;;;;2.13;0.90;;;28.40;57.00;;;;;;5062855;28;20036;-65
2022/07/12 11:26:27;;;;;;;1.10;0.82;;;28.10;56.00;;;;;;5057435;28;20388;-67
2022/07/12 11:28:57;;;;;;;1.58;0.77;;;28.40;56.70;;;;;;5053098;28;20048;-64
2022/07/12 11:31:25;;;;;;;2.28;1.00;;;28.70;56.20;;;;;;5068232;28;20525;-63
2022/07/12 11:33:51;;;;;;;2.10;0.90;;;28.80;56.00;;;;;;5062528;28;20036;-65
2022/07/12 11:36:17;;;;;;;0.80;0.80;;;28.70;55.50;;;;;;5057279;28;20036;-64
2022/07/12 11:38:45;;;;;;;0.90;0.80;;;28.60;55.40;;;;;;5054356;28;20140;-65
2022/07/12 11:41:12;;;;;;;1.05;0.93;;;28.60;55.70;;;;;;5050472;28;20041;-64
2022/07/12 11:43:39;;;;;;;1.30;0.70;;;28.50;56.00;;;;;;5053195;28;20033;-65
2022/07/12 11:46:05;;;;;;;1.02;0.90;;;28.70;56.40;;;;;;5051942;28;20040;-65
2022/07/12 11:48:32;;;;;;;0.85;0.65;;;28.50;56.80;;;;;;5052630;28;20053;-65
2022/07/12 11:51:02;;;;;;;1.10;1.00;;;28.60;57.10;;;;;;5049651;28;20106;-64
2022/07/12 11:53:28;;;;;;;0.98;0.68;;;28.50;55.90;;;;;;5052048;28;20459;-65
2022/07/12 11:55:56;;;;;;;0.82;0.65;;;28.60;56.20;;;;;;5056588;28;20057;-66
2022/07/12 11:58:22;;;;;;;1.95;0.73;;;28.20;54.60;;;;;;5059773;28;20066;-65
2022/07/12 12:00:49;;;;;;;1.17;0.55;;;28.10;54.50;;;;;;5050982;28;20033;-65
2022/07/12 12:03:17;;;;;;;1.52;0.70;;;27.90;55.20;;;;;;5052973;28;20461;-66
2022/07/12 12:05:45;;;;;;;0.77;0.70;;;28.00;55.10;;;;;;5050388;28;20040;-66
2022/07/12 12:08:13;;;;;;;3.08;0.80;;;28.10;54.90;;;;;;5049720;28;20059;-65
2022/07/12 12:10:40;;;;;;;1.67;0.77;;;28.30;55.30;;;;;;5055573;28;20041;-64
2022/07/12 12:13:15;;;;;;;0.90;0.85;;;28.50;55.60;;;;;;5070931;28;20076;-66
2022/07/12 12:15:48;;;;;;;1.95;0.80;;;28.90;55.30;;;;;;5070335;28;20040;-66
2022/07/12 12:18:13;;;;;;;1.52;0.93;;;29.50;54.00;;;;;;5059190;28;20400;-66
2022/07/12 12:20:43;;;;;;;1.00;1.00;;;29.70;53.30;;;;;;5048819;28;20033;-65
2022/07/12 12:23:19;;;;;;;1.75;1.42;;;30.00;52.30;;;;;;5049181;28;20102;-65
2022/07/12 12:25:48;;;;;;;1.52;1.15;;;30.50;51.80;;;;;;5048934;28;20041;-67
2022/07/12 12:28:14;;;;;;;3.60;0.90;;;31.00;50.00;;;;;;5050592;28;20049;-66
2022/07/12 12:30:54;;;;;;;1.98;1.23;;;31.30;50.30;;;;;;5062589;28;20822;-66
2022/07/12 12:33:39;;;;;;;1.27;1.02;;;32.60;47.90;;;;;;5067237;28;20052;-66
2022/07/12 12:36:23;;;;;;;2.47;1.13;;;33.90;45.50;;;;;;5062349;28;20044;-64
2022/07/12 12:38:51;;;;;;;2.83;1.10;;;34.60;45.60;;;;;;5057795;28;20063;-66
2022/07/12 12:41:17;;;;;;;1.85;1.10;;;34.90;44.00;;;;;;5060034;28;20093;-64
2022/07/12 12:43:43;;;;;;;1.60;0.90;;;34.30;43.40;;;;;;5051659;28;20536;-65
2022/07/12 12:46:09;;;;;;;1.83;1.33;;;34.30;44.10;;;;;;5054499;28;20392;-64
2022/07/12 12:48:36;;;;;;;1.25;0.90;;;34.20;43.80;;;;;;5059407;28;20051;-66
2022/07/12 12:51:09;;;;;;;1.00;0.90;;;34.60;43.60;;;;;;5062853;28;20059;-66
2022/07/12 12:53:37;;;;;;;1.75;0.90;;;35.10;42.50;;;;;;5048725;28;20327;-65
2022/07/12 12:56:08;;;;;;;2.63;0.90;;;35.70;42.20;;;;;;5050291;28;20130;-66